Flight Track Log - Related Links

Times and Time Zones

All times are in EDT time to prevent confusion due to time zone crossing. See the SKW4970 flight status page for this flight to view local times or setup timezone preferences in your user account.

Time Position Orientation Groundspeed Altitude Reporting Facility
EDT Latitude Longitude Course Direction KTS MPH feet Rate Location/Type
Sun 08:08:17 AM 29.9639 -95.3458 27° Northeast 164 189 700  Level Houston Center
Sun 08:08:35 AM 29.9494 -95.3475 186° South 185 213 1,500 2,506 Climbing Houston Center
Sun 08:09:36 AM 29.9708 -95.3739 313° West 198 228 4,000 1,558 Climbing Houston Center
Sun 08:10:19 AM 30.0086 -95.3556 23° Northeast 246 283 4,200 984 Climbing Houston Center
Sun 08:10:37 AM 30.0403 -95.3533 North 266 306 5,000 885 Climbing Houston Center
Sun 08:11:20 AM 30.0800 -95.3478 North 257 296 5,100 2,423 Climbing Houston Center
Sun 08:12:00 AM 30.5390 -95.0888 23° Northeast  Level FlightAware Approximate
Sun 08:12:21 AM 30.1642 -95.3144 19° North 261 300 9,200  Level Houston Center
Sun 08:13:00 AM 30.6438 -95.0238 27° Northeast  Level FlightAware Approximate
Sun 08:13:21 AM 30.2342 -95.2756 26° Northeast 277 319 11,900  Level Houston Center
Sun 08:14:22 AM 30.3119 -95.2331 25° Northeast 298 343 15,000 2,852 Climbing Houston Center
Sun 08:15:23 AM 30.3942 -95.1858 26° Northeast 318 366 17,700 2,459 Climbing Houston Center
Sun 08:16:24 AM 30.4789 -95.1364 27° Northeast 328 377 20,000 2,262 Climbing Houston Center
Sun 08:17:25 AM 30.5678 -95.0850 26° Northeast 346 398 22,300 2,262 Climbing Houston Center
Sun 08:18:26 AM 30.6608 -95.0311 26° Northeast 365 420 24,600 2,066 Climbing Houston Center
Sun 08:19:27 AM 30.7542 -94.9711 29° Northeast 377 434 26,500 1,820 Climbing Houston Center
Sun 08:20:28 AM 30.8506 -94.9111 28° Northeast 387 445 28,300 1,736 Climbing Houston Center
Sun 08:21:28 AM 30.9489 -94.8500 28° Northeast 396 456 30,000 1,642 Climbing Houston Center
Sun 08:22:03 AM 31.0069 -94.8153 27° Northeast 392 451 30,900 1,389 Climbing Fort Worth Center
Sun 08:23:03 AM 31.1039 -94.7494 30° Northeast 392 451 32,200 1,550 Climbing Fort Worth Center
Sun 08:24:03 AM 31.2111 -94.6858 27° Northeast 403 464 34,000 1,600 Climbing Fort Worth Center
Sun 08:25:03 AM 31.3056 -94.6197 31° Northeast 403 464 35,400 1,350 Climbing Fort Worth Center
Sun 08:26:03 AM 31.4064 -94.5486 31° Northeast 403 464 36,700 1,200 Climbing Fort Worth Center
Sun 08:27:03 AM 31.5028 -94.4797 31° Northeast 408 470 37,800 1,050 Climbing Fort Worth Center
Sun 08:28:03 AM 31.5950 -94.4039 35° Northeast 408 470 38,800 600 Climbing Fort Worth Center
Sun 08:29:03 AM 31.6869 -94.3178 39° Northeast 413 475 39,000 100 Climbing Fort Worth Center
Sun 08:30:03 AM 31.7806 -94.2267 40° Northeast 421 484 39,000  Level Fort Worth Center
Sun 08:31:03 AM 31.8783 -94.1328 39° Northeast 440 506 39,000  Level Fort Worth Center
Sun 08:32:03 AM 31.9761 -94.0386 39° Northeast 445 512 39,000  Level Fort Worth Center
Sun 08:33:03 AM 32.0758 -93.9467 38° Northeast 445 512 39,000  Level Fort Worth Center
Sun 08:34:03 AM 32.1714 -93.8547 39° Northeast 445 512 39,000  Level Fort Worth Center
Sun 08:35:03 AM 32.2647 -93.7553 42° Northeast 440 506 39,000  Level Fort Worth Center
Sun 08:36:03 AM 32.3581 -93.6656 39° Northeast 440 506 39,000  Level Fort Worth Center
Sun 08:37:03 AM 32.4556 -93.5753 38° Northeast 440 506 39,000  Level Fort Worth Center
Sun 08:38:03 AM 32.5486 -93.4825 40° Northeast 440 506 39,000  Level Fort Worth Center
Sun 08:39:03 AM 32.6439 -93.3897 39° Northeast 440 506 39,000  Level Fort Worth Center
Sun 08:40:03 AM 32.7511 -93.2861 39° Northeast 440 506 39,000  Level Fort Worth Center
Sun 08:41:03 AM 32.8461 -93.1925 40° Northeast 440 506 39,000  Level Fort Worth Center
Sun 08:42:03 AM 32.9411 -93.1017 39° Northeast 440 506 39,000  Level Fort Worth Center
Sun 08:43:03 AM 33.0361 -93.0103 39° Northeast 440 506 39,000  Level Fort Worth Center
Sun 08:44:03 AM 33.1308 -92.9136 41° Northeast 440 506 39,000  Level Fort Worth Center
Sun 08:45:03 AM 33.2233 -92.8222 40° Northeast 440 506 39,000  Level Fort Worth Center
Sun 08:47:08 AM 33.4194 -92.6294 39° Northeast 457 526 39,000  Level Memphis Center
Sun 08:48:08 AM 33.5150 -92.5372 39° Northeast 437 503 39,000  Level Memphis Center
Sun 08:49:08 AM 33.6108 -92.4400 40° Northeast 437 503 39,000  Level Memphis Center
Sun 08:50:08 AM 33.7061 -92.3422 40° Northeast 442 509 39,000  Level Memphis Center
Sun 08:51:08 AM 33.8017 -92.2469 40° Northeast 442 509 39,000  Level Memphis Center
Sun 08:52:08 AM 33.9011 -92.1542 38° Northeast 442 509 39,000  Level Memphis Center
Sun 08:53:08 AM 33.9942 -92.0558 41° Northeast 437 503 39,000  Level Memphis Center
Sun 08:54:08 AM 34.0661 -91.9794 41° Northeast 437 503 39,000  Level Memphis Center
Sun 08:55:08 AM 34.1700 -91.8683 41° Northeast 437 503 39,000  Level Memphis Center
Sun 08:56:08 AM 34.2628 -91.7719 41° Northeast 437 503 39,000  Level Memphis Center
Sun 08:57:08 AM 34.3661 -91.6731 38° Northeast 437 503 39,000  Level Memphis Center
Sun 08:58:08 AM 34.4569 -91.5789 41° Northeast 439 505 39,000  Level Memphis Center
Sun 08:59:08 AM 34.5517 -91.4819 40° Northeast 433 498 39,000  Level Memphis Center
Sun 09:00:08 AM 34.6339 -91.3969 40° Northeast 434 499 39,000  Level Memphis Center
Sun 09:01:08 AM 34.7242 -91.3022 41° Northeast 434 499 39,000  Level Memphis Center
Sun 09:02:08 AM 34.8167 -91.2069 40° Northeast 434 499 39,000  Level Memphis Center
Sun 09:03:08 AM 34.9114 -91.1067 41° Northeast 446 513 39,000  Level Memphis Center
Sun 09:04:08 AM 35.0056 -91.0061 41° Northeast 446 513 39,000  Level Memphis Center
Sun 09:05:08 AM 35.1106 -90.9003 39° Northeast 446 513 39,000  Level Memphis Center
Sun 09:06:08 AM 35.2028 -90.7967 43° Northeast 451 519 39,000  Level Memphis Center
Sun 09:07:08 AM 35.2969 -90.6981 41° Northeast 439 505 39,000  Level Memphis Center
Sun 09:08:08 AM 35.3889 -90.6017 41° Northeast 437 503 39,000  Level Memphis Center
Sun 09:09:08 AM 35.4828 -90.5022 41° Northeast 437 503 39,000  Level Memphis Center
Sun 09:10:08 AM 35.5747 -90.4006 42° Northeast 437 503 39,000  Level Memphis Center
Sun 09:11:08 AM 35.6644 -90.3033 41° Northeast 437 503 39,000  Level Memphis Center
Sun 09:12:08 AM 35.7372 -90.2189 43° Northeast 425 489 39,000  Level Memphis Center
Sun 09:13:08 AM 35.8311 -90.1214 40° Northeast 425 489 39,000  Level Memphis Center
Sun 09:14:08 AM 35.9206 -90.0211 42° Northeast 430 495 39,000  Level Memphis Center
Sun 09:15:08 AM 36.0119 -89.9258 40° Northeast 430 495 39,000  Level Memphis Center
Sun 09:16:08 AM 36.1033 -89.8253 42° Northeast 436 502 39,000  Level Memphis Center
Sun 09:17:08 AM 36.1967 -89.7244 41° Northeast 436 502 39,000  Level Memphis Center
Sun 09:18:08 AM 36.2939 -89.6206 41° Northeast 441 507 39,000  Level Memphis Center
Sun 09:19:08 AM 36.3914 -89.5164 41° Northeast 448 516 39,000 -650 Level Memphis Center
Sun 09:20:08 AM 36.4883 -89.4044 43° Northeast 460 529 37,700 -1,400 Descending Memphis Center
Sun 09:21:08 AM 36.5917 -89.2922 41° Northeast 460 529 36,200 -1,500 Descending Memphis Center
Sun 09:22:08 AM 36.6825 -89.1900 42° Northeast 445 512 34,700 -1,550 Descending Memphis Center
Sun 09:23:08 AM 36.7711 -89.0903 42° Northeast 434 499 33,100 -850 Descending Memphis Center
Sun 09:24:08 AM 36.8556 -88.9956 42° Northeast 423 487 33,000 -50 Descending Memphis Center
Sun 09:25:08 AM 36.9419 -88.8981 42° Northeast 417 480 33,000 -350 Level Memphis Center
Sun 09:26:08 AM 37.0344 -88.7950 42° Northeast 423 487 32,300 -850 Descending Memphis Center
Sun 09:27:08 AM 37.1250 -88.6944 42° Northeast 430 495 31,300 -1,006 Descending Memphis Center
Sun 09:28:55 AM 37.2703 -88.5231 43° Northeast 407 468 29,500 -817 Descending Indianapolis Center
Sun 09:29:57 AM 37.3439 -88.4394 42° Northeast 390 449 29,000 -242 Descending Indianapolis Center
Sun 09:30:59 AM 37.4200 -88.3519 42° Northeast 372 428 29,000  Level Indianapolis Center
Sun 09:32:01 AM 37.5031 -88.2556 43° Northeast 376 433 29,000  Level Indianapolis Center
Sun 09:33:03 AM 37.5933 -88.1500 43° Northeast 394 453 29,000 -48 Level Indianapolis Center
Sun 09:34:05 AM 37.6764 -88.0539 42° Northeast 400 460 28,900 -774 Descending Indianapolis Center
Sun 09:35:07 AM 37.7694 -87.9458 43° Northeast 417 480 27,400 -1,355 Descending Indianapolis Center
Sun 09:36:09 AM 37.8503 -87.8522 42° Northeast 397 457 26,100 -1,355 Descending Indianapolis Center
Sun 09:37:11 AM 37.9225 -87.7486 49° Northeast 396 456 24,600 -1,016 Descending Indianapolis Center
Sun 09:38:13 AM 37.9564 -87.6178 72° East 389 448 24,000 -968 Descending Indianapolis Center
Sun 09:39:15 AM 37.9869 -87.4933 73° East 371 427 22,600 -1,452 Descending Indianapolis Center
Sun 09:40:17 AM 38.0200 -87.3636 72° East 382 440 21,000 -1,548 Descending Indianapolis Center
Sun 09:41:19 AM 38.0525 -87.2328 72° East 390 449 19,400 -1,694 Descending Indianapolis Center
Sun 09:42:21 AM 38.0892 -87.0867 72° East 369 425 17,500 -1,694 Descending Indianapolis Center
Sun 09:43:23 AM 38.1194 -86.9628 73° East 371 427 15,900 -1,548 Descending Indianapolis Center
Sun 09:44:25 AM 38.1519 -86.8333 72° East 386 444 14,300 -1,548 Descending Indianapolis Center
Sun 09:45:27 AM 38.1828 -86.7061 73° East 382 440 12,700 -1,548 Descending Indianapolis Center
Sun 09:46:29 AM 38.2114 -86.5889 73° East 353 406 11,100 -1,548 Descending Indianapolis Center
Sun 09:47:31 AM 38.2236 -86.4656 83° East 291 335 9,500 -1,548 Descending Indianapolis Center
Sun 09:48:33 AM 38.2108 -86.3772 100° East 257 296 7,900 -1,597 Descending Indianapolis Center
Sun 09:49:35 AM 38.2006 -86.2906 99° East 251 289 6,200 -919 Descending Indianapolis Center
Sun 09:50:37 AM 38.1900 -86.2111 100° East 239 275 6,000 -97 Descending Indianapolis Center
Sun 09:51:39 AM 38.1794 -86.1364 100° East 220 253 6,000  Level Indianapolis Center
Sun 09:52:41 AM 38.1664 -86.0597 102° East 218 251 6,000  Level Indianapolis Center
Sun 09:53:43 AM 38.1436 -85.9897 112° Southeast 214 246 6,000  Level Indianapolis Center
Sun 09:54:45 AM 38.1992 -85.9511 29° Northeast 233 268 6,000 -242 Level Indianapolis Center
Sun 09:55:47 AM 38.2778 -85.9311 11° North 239 275 5,500 -774 Descending Indianapolis Center
Sun 09:56:49 AM 38.3403 -85.9136 12° North 233 268 4,400 -1,171 Descending Indianapolis Center
Sun 09:57:50 AM 38.4033 -85.9003 North 231 266 3,100 -683 Descending Indianapolis Center
Sun 09:58:52 AM 38.4156 -85.8536 72° East 192 221 3,000 -48 Descending Indianapolis Center
Sun 09:59:54 AM 38.3928 -85.8156 127° Southeast 157 181 3,000  Level Indianapolis Center
Sun 10:00:56 AM 38.3500 -85.8033 167° South 154 177 3,000  Level Indianapolis Center
Sun 10:01:58 AM 38.3072 -85.7875 164° South 155 178 3,000 -339 Level Indianapolis Center
Sun 10:03:00 AM 38.2675 -85.7744 166° South 153 176 2,300 -677 Descending Indianapolis Center

Login

Don't have an account? Register now (free) for customized features, flight alerts, and more!